Time;durP1;ratioP1;P1;durP2;ratioP2;P2;SDS_P1;SDS_P2;PMS_P1;PMS_P2;Temp;Humidity;BMP_temperature;BMP_pressure;BME280_temperature;BME280_humidity;BME280_pressure;Samples;Min_cycle;Max_cycle;Signal;HPM_P1;HPM_P2
2022/07/23 00:01:11;;;;;;;5.95;4.57;;;;;;;18.10;76.28;98721.75;4134121;28;20489;-69
2022/07/23 00:03:12;;;;;;;11.15;4.30;;;;;;;18.11;76.18;98721.31;4132957;28;20572;-69
2022/07/23 00:05:12;;;;;;;5.15;4.25;;;;;;;18.10;75.59;98730.13;4133026;28;20038;-69
2022/07/23 00:07:13;;;;;;;6.28;4.57;;;;;;;18.10;76.03;98732.94;4134240;28;20053;-69
2022/07/23 00:09:14;;;;;;;10.68;5.10;;;;;;;18.09;76.25;98728.56;4131653;28;20048;-69
2022/07/23 00:11:14;;;;;;;7.90;4.72;;;;;;;18.07;76.33;98717.78;4135483;28;20427;-69
2022/07/23 00:13:15;;;;;;;12.15;4.82;;;;;;;18.06;76.23;98709.81;4134987;28;20479;-69
2022/07/23 00:15:15;;;;;;;5.88;4.22;;;;;;;18.05;76.35;98702.63;4136220;28;20079;-69
2022/07/23 00:17:15;;;;;;;13.63;4.95;;;;;;;18.04;76.02;98701.84;4135771;28;20133;-69
2022/07/23 00:19:16;;;;;;;5.20;4.70;;;;;;;18.06;76.17;98696.59;4135608;28;20146;-69
2022/07/23 00:21:16;;;;;;;9.68;4.68;;;;;;;18.08;76.18;98704.59;4134561;28;20058;-69
2022/07/23 00:23:16;;;;;;;6.57;4.47;;;;;;;18.08;76.03;98696.97;4135584;28;20060;-69
2022/07/23 00:25:18;;;;;;;6.28;4.88;;;;;;;18.08;76.24;98699.78;4136375;28;20128;-69
2022/07/23 00:27:18;;;;;;;9.93;5.07;;;;;;;18.07;76.45;98695.38;4133995;28;20445;-69
2022/07/23 00:29:18;;;;;;;6.70;5.18;;;;;;;18.00;76.40;98681.50;4135949;28;20088;-69
2022/07/23 00:31:19;;;;;;;6.70;4.72;;;;;;;18.01;76.13;98694.28;4135123;28;20448;-69
2022/07/23 00:33:19;;;;;;;7.03;5.22;;;;;;;18.04;75.56;98684.22;4135635;28;20453;-69
2022/07/23 00:35:21;;;;;;;10.45;5.38;;;;;;;18.04;76.15;98687.84;4135531;28;20045;-69
2022/07/23 00:37:21;;;;;;;8.63;4.68;;;;;;;17.99;76.60;98691.13;4135143;28;20148;-69
2022/07/23 00:39:22;;;;;;;6.47;5.72;;;;;;;17.99;76.33;98698.72;4136507;28;20467;-69
2022/07/23 00:41:22;;;;;;;5.75;4.70;;;;;;;17.93;76.98;98704.00;4134526;28;20337;-69
2022/07/23 00:43:23;;;;;;;5.70;5.07;;;;;;;17.93;77.08;98699.19;4132662;28;20046;-69
2022/07/23 00:45:24;;;;;;;6.75;4.65;;;;;;;17.94;76.57;98700.75;4133345;28;20422;-69
2022/07/23 00:47:24;;;;;;;6.15;4.90;;;;;;;17.96;76.53;98695.56;4133965;28;20172;-69
2022/07/23 00:49:27;;;;;;;6.53;5.00;;;;;;;17.96;76.65;98689.97;4134659;28;20382;-69
2022/07/23 00:51:27;;;;;;;9.27;5.93;;;;;;;17.97;76.91;98701.94;4135400;28;20457;-69
2022/07/23 00:53:28;;;;;;;6.22;5.63;;;;;;;17.95;76.86;98698.75;4136648;28;20038;-69
2022/07/23 00:55:28;;;;;;;6.47;5.18;;;;;;;17.93;76.90;98706.78;4135512;28;20046;-69
2022/07/23 00:57:29;;;;;;;8.25;5.68;;;;;;;17.89;76.53;98698.47;4135957;28;20045;-69
2022/07/23 00:59:29;;;;;;;10.77;4.97;;;;;;;17.86;76.56;98704.88;4135458;28;20049;-69
2022/07/23 01:01:30;;;;;;;6.68;5.65;;;;;;;17.83;76.38;98700.13;4137189;28;20493;-69
2022/07/23 01:03:30;;;;;;;5.85;4.82;;;;;;;17.83;76.74;98694.53;4138581;28;20052;-69
2022/07/23 01:05:30;;;;;;;7.55;6.13;;;;;;;17.78;76.94;98688.59;4138567;28;20045;-69
2022/07/23 01:07:31;;;;;;;8.35;5.45;;;;;;;17.78;76.81;98683.81;4136550;28;20381;-69
2022/07/23 01:09:31;;;;;;;8.68;5.90;;;;;;;17.71;76.95;98672.75;4137626;28;20042;-69
2022/07/23 01:11:34;;;;;;;8.35;5.85;;;;;;;17.67;77.07;98671.94;4137553;28;20107;-69
2022/07/23 01:13:35;;;;;;;9.57;6.15;;;;;;;17.61;77.02;98673.63;4139019;28;20050;-69
2022/07/23 01:15:37;;;;;;;8.50;6.15;;;;;;;17.60;76.96;98672.03;4139845;28;20613;-69
2022/07/23 01:17:37;;;;;;;;;;;;;;;17.59;77.36;98673.25;4138989;28;20095;-69
2022/07/23 01:19:38;;;;;;;8.13;6.00;;;;;;;17.54;77.22;98679.31;4136719;28;20379;-69
2022/07/23 01:21:41;;;;;;;8.90;6.32;;;;;;;17.55;77.27;98676.13;4137347;28;20609;-69
2022/07/23 01:23:41;;;;;;;9.07;6.22;;;;;;;17.55;77.04;98666.94;4138357;28;20046;-69
2022/07/23 01:25:51;;;;;;;7.32;5.65;;;;;;;17.55;77.05;98669.72;4136134;28;20069;-69
2022/07/23 01:27:53;;;;;;;9.82;5.93;;;;;;;17.51;77.66;98672.56;4137334;28;20365;-69
2022/07/23 01:29:54;;;;;;;8.57;6.20;;;;;;;17.49;77.45;98672.19;4136442;28;20049;-69
2022/07/23 01:31:55;;;;;;;9.00;6.53;;;;;;;17.47;77.42;98671.03;4137678;28;20042;-69
2022/07/23 01:33:55;;;;;;;7.85;5.55;;;;;;;17.45;77.12;98670.66;4137646;28;20269;-69
2022/07/23 01:35:55;;;;;;;7.53;5.82;;;;;;;17.45;77.40;98677.03;4135876;28;20116;-69
2022/07/23 01:37:56;;;;;;;9.00;6.53;;;;;;;17.42;77.97;98670.28;4137872;28;20076;-69
2022/07/23 01:39:56;;;;;;;8.27;6.32;;;;;;;17.41;77.49;98671.50;4138451;28;20038;-69
2022/07/23 01:41:56;;;;;;;8.68;6.22;;;;;;;17.44;77.37;98666.25;4136456;28;20112;-69
2022/07/23 01:43:57;;;;;;;6.97;6.18;;;;;;;17.38;77.76;98657.56;4137808;28;20046;-69
2022/07/23 01:45:57;;;;;;;8.57;6.50;;;;;;;17.39;77.68;98664.75;4138312;28;20049;-69
2022/07/23 01:47:57;;;;;;;9.70;6.75;;;;;;;17.35;77.71;98650.78;4135614;28;20074;-69
2022/07/23 01:49:58;;;;;;;8.05;6.45;;;;;;;17.38;77.44;98643.59;4137282;28;20065;-69
2022/07/23 01:52:01;;;;;;;8.05;6.72;;;;;;;17.38;77.70;98638.78;4138545;28;20049;-69
2022/07/23 01:54:02;;;;;;;9.02;6.30;;;;;;;17.37;77.56;98634.38;4136759;28;20143;-69
2022/07/23 01:56:03;;;;;;;6.68;5.97;;;;;;;17.37;77.64;98625.97;4137279;28;20033;-69
2022/07/23 01:58:03;;;;;;;8.63;5.88;;;;;;;17.35;77.70;98619.25;4134643;28;20038;-69
2022/07/23 02:00:04;;;;;;;8.48;6.95;;;;;;;17.35;77.74;98620.03;4136944;28;20088;-69
2022/07/23 02:02:05;;;;;;;9.90;7.10;;;;;;;17.35;77.97;98622.03;4134372;28;20045;-69
2022/07/23 02:04:05;;;;;;;10.00;6.43;;;;;;;17.31;78.24;98624.09;4135286;28;20060;-69
2022/07/23 02:06:06;;;;;;;10.57;6.78;;;;;;;17.23;78.71;98620.59;4137290;28;20036;-69
2022/07/23 02:08:06;;;;;;;10.95;7.03;;;;;;;17.18;78.91;98615.47;4138104;28;20040;-69
2022/07/23 02:10:07;;;;;;;10.80;7.05;;;;;;;17.18;78.93;98620.25;4136819;28;20044;-69
2022/07/23 02:12:08;;;;;;;8.77;6.32;;;;;;;17.19;78.86;98633.03;4136614;28;20591;-69
2022/07/23 02:14:08;;;;;;;9.13;6.95;;;;;;;17.15;79.21;98641.47;4136929;28;20038;-69
2022/07/23 02:16:08;;;;;;;9.38;7.07;;;;;;;17.12;79.11;98636.69;4134346;28;20558;-69
2022/07/23 02:18:09;;;;;;;13.10;7.07;;;;;;;17.11;79.69;98641.50;4136937;28;20025;-69
2022/07/23 02:20:10;;;;;;;12.25;7.10;;;;;;;17.11;79.71;98637.91;4136351;28;20458;-69
2022/07/23 02:22:11;;;;;;;9.20;6.35;;;;;;;17.14;79.65;98639.88;4136322;28;20049;-69
2022/07/23 02:24:11;;;;;;;10.60;7.55;;;;;;;17.09;79.75;98643.13;4137688;28;20030;-69
2022/07/23 02:26:11;;;;;;;6.30;5.60;;;;;;;17.13;79.39;98692.22;4136978;28;20539;-69
2022/07/23 02:28:12;;;;;;;12.00;7.05;;;;;;;17.06;79.84;98784.53;4137287;28;20072;-69
2022/07/23 02:30:12;;;;;;;12.93;6.45;;;;;;;17.10;79.78;98809.66;4137016;28;20149;-69
2022/07/23 02:32:13;;;;;;;10.23;6.70;;;;;;;17.11;79.90;98809.22;4137771;28;20434;-69
2022/07/23 02:34:13;;;;;;;13.98;8.48;;;;;;;17.14;80.31;98824.41;4138332;28;20325;-69
2022/07/23 02:36:13;;;;;;;12.25;9.88;;;;;;;17.15;80.41;98806.41;4135994;28;20129;-69
2022/07/23 02:38:14;;;;;;;12.90;9.10;;;;;;;17.15;80.31;98742.13;4137946;28;20037;-68
2022/07/23 02:40:14;;;;;;;14.27;11.55;;;;;;;17.09;82.70;98724.19;4135805;28;20030;-69
2022/07/23 02:42:15;;;;;;;18.17;12.07;;;;;;;17.03;84.13;98728.66;4136245;28;20040;-69
2022/07/23 02:44:16;;;;;;;16.60;12.82;;;;;;;16.88;86.69;98702.06;4133323;28;20042;-69
2022/07/23 02:46:16;;;;;;;22.38;11.93;;;;;;;16.87;85.03;98680.91;4135440;28;20128;-69
2022/07/23 02:48:16;;;;;;;13.63;11.38;;;;;;;16.90;87.34;98649.34;4137665;28;20671;-69
2022/07/23 02:50:17;;;;;;;14.80;11.20;;;;;;;16.80;88.00;98660.25;4136091;28;20111;-69
2022/07/23 02:52:17;;;;;;;16.13;11.98;;;;;;;16.67;89.44;98669.53;4136297;28;20390;-68
2022/07/23 02:54:18;;;;;;;20.75;11.98;;;;;;;16.60;90.09;98662.00;4137178;28;20512;-69
2022/07/23 02:56:18;;;;;;;16.85;11.75;;;;;;;16.55;90.66;98640.13;4135046;28;20555;-69
2022/07/23 02:58:18;;;;;;;18.23;12.40;;;;;;;16.50;91.89;98615.41;4136442;28;20025;-69
2022/07/23 03:00:19;;;;;;;19.45;13.25;;;;;;;16.41;93.61;98609.53;4135821;28;20617;-68
2022/07/23 03:02:19;;;;;;;18.65;14.07;;;;;;;16.34;93.83;98604.81;4133206;28;20026;-68
2022/07/23 03:04:19;;;;;;;19.77;14.25;;;;;;;16.21;95.49;98593.34;4136861;28;20033;-69
2022/07/23 03:06:20;;;;;;;22.52;14.25;;;;;;;16.16;95.79;98596.59;4136618;28;20454;-68
2022/07/23 03:08:20;;;;;;;18.10;15.50;;;;;;;16.12;96.96;98606.97;4136753;28;20494;-69
2022/07/23 03:10:20;;;;;;;19.42;15.63;;;;;;;16.04;98.12;98613.03;4136876;28;20498;-69
2022/07/23 03:12:21;;;;;;;19.70;14.98;;;;;;;16.04;97.46;98629.78;4136938;28;20058;-69
2022/07/23 03:14:21;;;;;;;21.85;17.00;;;;;;;16.00;98.23;98636.19;4136400;28;20038;-68
2022/07/23 03:16:21;;;;;;;16.38;13.30;;;;;;;16.07;96.14;98631.78;4135958;28;20046;-68
2022/07/23 03:18:22;;;;;;;16.40;14.40;;;;;;;16.08;97.10;98644.53;4135748;28;20041;-68
2022/07/23 03:20:22;;;;;;;18.50;14.40;;;;;;;16.09;96.34;98658.06;4137081;28;20034;-69
2022/07/23 03:22:22;;;;;;;20.70;14.85;;;;;;;16.12;95.87;98662.81;4134440;28;20053;-68
2022/07/23 03:24:53;;;;;;;16.50;13.25;;;;;;;16.15;94.69;98664.78;4136297;28;20455;-68
2022/07/23 03:26:43;;;;;;;15.93;13.98;;;;;;;16.22;92.55;98645.19;4135361;28;20045;-68
2022/07/23 03:28:44;;;;;;;16.33;14.30;;;;;;;16.39;96.19;98648.25;4135305;28;20597;-68
2022/07/23 03:30:48;;;;;;;15.75;14.02;;;;;;;16.38;94.37;98649.44;4135871;28;20485;-68
2022/07/23 03:32:48;;;;;;;15.27;12.88;;;;;;;16.35;95.14;98667.03;4135974;28;20050;-68
2022/07/23 03:34:49;;;;;;;19.55;13.77;;;;;;;16.29;95.94;98650.69;4137046;28;20034;-68
2022/07/23 03:36:49;;;;;;;19.90;14.07;;;;;;;16.24;96.26;98623.25;4136316;28;20054;-68
2022/07/23 03:38:50;;;;;;;22.58;16.02;;;;;;;16.20;97.51;98619.66;4135155;28;20093;-68
2022/07/23 03:40:51;;;;;;;18.10;14.57;;;;;;;16.12;98.36;98620.16;4136601;28;20125;-68
2022/07/23 03:42:51;;;;;;;19.75;14.38;;;;;;;16.12;97.47;98625.72;4135190;28;20368;-68
2022/07/23 03:44:51;;;;;;;16.50;13.25;;;;;;;16.15;97.23;98622.94;4135435;28;20056;-68
2022/07/23 03:46:52;;;;;;;18.70;14.75;;;;;;;16.12;100.00;98622.94;4136768;28;20057;-68
2022/07/23 03:48:52;;;;;;;18.35;14.30;;;;;;;16.07;97.80;98618.59;4134530;28;20046;-69
2022/07/23 03:50:53;;;;;;;21.88;14.32;;;;;;;16.07;98.24;98626.19;4133282;28;20128;-68
2022/07/23 03:52:53;;;;;;;16.25;12.98;;;;;;;16.12;95.80;98629.31;4136683;28;20462;-68
2022/07/23 03:54:54;;;;;;;13.88;12.23;;;;;;;16.13;96.93;98611.34;4135759;28;20494;-68
2022/07/23 03:56:54;;;;;;;22.40;13.73;;;;;;;16.09;99.23;98621.78;4135675;28;20546;-68
2022/07/23 03:58:54;;;;;;;21.83;16.25;;;;;;;16.09;99.94;98635.72;4135309;28;20485;-69
2022/07/23 04:00:55;;;;;;;19.35;14.15;;;;;;;16.02;100.00;98644.16;4134987;28;20061;-68
2022/07/23 04:02:55;;;;;;;19.08;14.27;;;;;;;15.98;100.00;98641.41;4136606;28;20041;-69
2022/07/23 04:04:55;;;;;;;17.02;13.10;;;;;;;16.01;98.46;98642.56;4135046;28;20128;-69
2022/07/23 04:06:56;;;;;;;19.63;12.52;;;;;;;16.10;95.39;98659.63;4135886;28;20399;-68
2022/07/23 04:08:56;;;;;;;20.17;13.27;;;;;;;16.20;95.01;98680.28;4135328;28;20060;-69
2022/07/23 04:10:56;;;;;;;16.63;13.20;;;;;;;16.21;97.72;98716.16;4134059;28;20042;-69
2022/07/23 04:12:57;;;;;;;19.48;12.98;;;;;;;16.19;98.23;98732.53;4136150;28;20072;-68
2022/07/23 04:14:57;;;;;;;19.70;13.77;;;;;;;16.16;98.80;98718.63;4136440;28;20062;-68
2022/07/23 04:16:57;;;;;;;16.85;12.27;;;;;;;16.11;99.90;98719.84;4135302;28;20135;-68
2022/07/23 04:18:58;;;;;;;16.67;11.85;;;;;;;16.05;100.00;98724.25;4134615;28;20046;-68
2022/07/23 04:20:58;;;;;;;19.75;13.00;;;;;;;16.01;100.00;98726.28;4135374;28;20042;-69
2022/07/23 04:22:58;;;;;;;19.08;12.68;;;;;;;16.02;100.00;98739.84;4135411;28;20267;-68
2022/07/23 04:24:59;;;;;;;19.98;13.50;;;;;;;16.04;100.00;98731.03;4136159;28;20492;-68
2022/07/23 04:27:00;;;;;;;17.17;12.82;;;;;;;16.11;100.00;98722.63;4136122;28;20054;-68
2022/07/23 04:29:00;;;;;;;23.88;14.70;;;;;;;15.97;100.00;98680.84;4134030;28;20066;-69
2022/07/23 04:31:00;;;;;;;21.48;15.70;;;;;;;15.91;100.00;98665.78;4134376;28;20048;-68
2022/07/23 04:33:01;;;;;;;20.65;15.82;;;;;;;15.85;100.00;98653.44;4136032;28;20057;-68
2022/07/23 04:35:02;;;;;;;18.85;15.10;;;;;;;15.77;100.00;98649.13;4137584;28;20390;-68
2022/07/23 04:37:02;;;;;;;19.42;13.93;;;;;;;15.78;100.00;98651.50;4139564;28;20058;-68
2022/07/23 04:39:02;;;;;;;19.23;13.63;;;;;;;15.82;100.00;98662.66;4138222;28;20046;-68
2022/07/23 04:41:03;;;;;;;17.23;13.50;;;;;;;15.83;100.00;98675.41;4139256;28;20058;-68
2022/07/23 04:43:04;;;;;;;18.67;12.95;;;;;;;15.82;100.00;98671.81;4138717;28;20501;-69
2022/07/23 04:45:05;;;;;;;17.08;14.25;;;;;;;15.82;100.00;98669.03;4136133;28;20042;-68
2022/07/23 04:47:06;;;;;;;15.68;13.25;;;;;;;15.82;100.00;98679.38;4138703;28;20152;-69
2022/07/23 04:49:06;;;;;;;18.13;13.30;;;;;;;15.81;100.00;98675.81;4138989;28;20088;-68
2022/07/23 04:51:06;;;;;;;17.92;13.88;;;;;;;15.84;100.00;98674.19;4138831;28;20038;-68
2022/07/23 04:53:07;;;;;;;14.57;12.00;;;;;;;15.89;100.00;98679.34;4139077;28;20433;-69
2022/07/23 04:55:07;;;;;;;16.20;12.77;;;;;;;15.92;100.00;98673.72;4138488;28;20069;-69
2022/07/23 04:57:08;;;;;;;16.73;12.88;;;;;;;15.98;99.76;98682.47;4138294;28;20434;-69
2022/07/23 04:59:08;;;;;;;16.67;12.27;;;;;;;16.00;99.68;98678.06;4138418;28;20046;-69
2022/07/23 05:01:09;;;;;;;20.15;13.35;;;;;;;16.03;100.00;98682.00;4136987;28;20050;-68
2022/07/23 05:03:09;;;;;;;17.40;13.52;;;;;;;16.02;99.64;98694.38;4137705;28;20112;-68
2022/07/23 05:05:09;;;;;;;18.45;13.35;;;;;;;16.04;99.09;98697.56;4134355;28;20506;-68
2022/07/23 05:07:10;;;;;;;16.55;12.90;;;;;;;16.01;99.32;98690.81;4136949;28;20353;-68
2022/07/23 05:09:10;;;;;;;15.68;12.43;;;;;;;15.99;99.18;98698.78;4135726;28;20081;-68
2022/07/23 05:11:10;;;;;;;18.27;14.07;;;;;;;16.00;100.00;98702.38;4136196;28;20049;-69
2022/07/23 05:13:11;;;;;;;17.02;13.93;;;;;;;15.98;99.75;98705.59;4136399;28;20046;-69
2022/07/23 05:15:11;;;;;;;15.30;12.00;;;;;;;16.00;100.00;98702.38;4135498;28;20127;-68
2022/07/23 05:17:12;;;;;;;19.27;13.20;;;;;;;15.99;100.00;98706.38;4136135;28;20390;-69
2022/07/23 05:19:12;;;;;;;15.88;12.60;;;;;;;15.98;100.00;98715.97;4136444;28;20108;-69
2022/07/23 05:21:12;;;;;;;16.10;12.38;;;;;;;16.05;99.42;98704.72;4135769;28;20128;-68
2022/07/23 05:23:13;;;;;;;16.85;13.18;;;;;;;16.13;100.00;98714.63;4135757;28;20069;-69
2022/07/23 05:25:13;;;;;;;14.75;11.93;;;;;;;16.25;99.23;98710.56;4135450;28;20051;-69
2022/07/23 05:27:13;;;;;;;16.73;12.63;;;;;;;16.32;98.52;98707.72;4135910;28;20301;-69
2022/07/23 05:29:14;;;;;;;19.58;14.18;;;;;;;16.39;99.06;98701.31;4136055;28;20423;-69
2022/07/23 05:31:14;;;;;;;15.82;12.98;;;;;;;16.40;99.68;98706.47;4135707;28;20111;-69
2022/07/23 05:33:14;;;;;;;16.75;12.98;;;;;;;16.40;100.00;98698.09;4136256;28;20049;-69
2022/07/23 05:35:15;;;;;;;13.88;12.15;;;;;;;16.45;100.00;98705.22;4134761;28;20064;-69
2022/07/23 05:37:15;;;;;;;15.18;12.82;;;;;;;16.46;99.54;98713.19;4137572;28;20044;-69
2022/07/23 05:39:16;;;;;;;15.60;12.52;;;;;;;16.48;97.93;98707.22;4133828;28;20976;-69
2022/07/23 05:41:16;;;;;;;17.00;13.95;;;;;;;16.49;98.85;98706.78;4136137;28;20760;-69
2022/07/23 05:43:16;;;;;;;16.10;13.90;;;;;;;16.43;99.73;98702.84;4134045;28;20042;-69
2022/07/23 05:45:17;;;;;;;19.08;15.00;;;;;;;16.38;100.00;98714.44;4134431;28;20034;-69
2022/07/23 05:47:17;;;;;;;18.92;13.93;;;;;;;16.36;100.00;98710.47;4136076;28;20046;-69
2022/07/23 05:49:18;;;;;;;16.00;13.35;;;;;;;16.34;99.90;98708.09;4135549;28;20046;-69
2022/07/23 05:51:21;;;;;;;18.50;14.05;;;;;;;16.37;99.74;98723.25;4135869;28;20290;-69
2022/07/23 05:53:22;;;;;;;17.90;13.82;;;;;;;16.38;99.91;98724.81;4136400;28;20041;-69
2022/07/23 05:55:22;;;;;;;17.02;12.88;;;;;;;16.37;99.15;98721.25;4135141;28;20050;-69
2022/07/23 05:57:22;;;;;;;17.55;13.32;;;;;;;16.36;98.96;98721.66;4131708;28;20172;-69
2022/07/23 05:59:23;;;;;;;18.13;14.52;;;;;;;16.35;99.34;98726.44;4132799;28;20175;-69
2022/07/23 06:01:23;;;;;;;18.52;13.88;;;;;;;16.37;98.46;98721.25;4138281;28;20070;-70
2022/07/23 06:03:24;;;;;;;17.60;14.00;;;;;;;16.45;98.71;98721.97;4053522;28;20105;-69
2022/07/23 06:05:25;;;;;;;16.30;13.73;;;;;;;16.47;98.36;98714.00;4139955;28;20449;-69
2022/07/23 06:07:25;;;;;;;17.65;14.35;;;;;;;16.54;98.79;98717.50;4135463;28;20045;-69
2022/07/23 06:09:25;;;;;;;16.35;13.15;;;;;;;16.57;98.78;98719.50;4135784;28;20433;-69
2022/07/23 06:11:26;;;;;;;17.67;14.32;;;;;;;16.60;97.89;98720.66;4136435;28;20095;-69
2022/07/23 06:13:26;;;;;;;18.05;14.13;;;;;;;16.58;97.58;98720.28;4137099;28;20042;-69
2022/07/23 06:15:26;;;;;;;23.27;15.25;;;;;;;16.61;97.59;98716.66;4137977;28;20049;-69
2022/07/23 06:17:27;;;;;;;19.88;14.73;;;;;;;16.65;97.21;98717.44;4134885;28;20112;-69
2022/07/23 06:19:28;;;;;;;18.70;14.23;;;;;;;16.68;97.73;98722.19;4134904;28;20054;-69
2022/07/23 06:21:28;;;;;;;19.45;15.07;;;;;;;16.70;97.10;98717.00;4137330;28;20438;-69
2022/07/23 06:23:28;;;;;;;18.33;14.95;;;;;;;16.75;97.49;98724.94;4135725;28;20041;-69
2022/07/23 06:25:29;;;;;;;20.55;13.63;;;;;;;16.80;96.99;98724.50;4136429;28;20053;-69
2022/07/23 06:27:29;;;;;;;17.38;14.75;;;;;;;16.80;96.40;98727.31;4132188;28;20397;-69
2022/07/23 06:29:29;;;;;;;20.33;15.13;;;;;;;16.80;97.83;98740.47;4133101;28;20054;-69
2022/07/23 06:31:30;;;;;;;16.95;14.85;;;;;;;16.82;97.76;98730.47;4133085;28;20092;-69
2022/07/23 06:33:30;;;;;;;19.60;15.52;;;;;;;16.84;97.88;98724.47;4136672;28;20131;-69
2022/07/23 06:35:30;;;;;;;18.02;14.52;;;;;;;16.88;96.78;98727.19;4135750;28;20305;-69
2022/07/23 06:37:31;;;;;;;17.95;14.60;;;;;;;16.87;95.29;98723.63;4133987;28;20137;-69
2022/07/23 06:39:31;;;;;;;18.20;13.45;;;;;;;16.89;95.04;98731.63;4134792;28;20049;-69
2022/07/23 06:41:31;;;;;;;18.45;15.38;;;;;;;16.84;95.22;98732.84;4137662;28;20096;-69
2022/07/23 06:43:32;;;;;;;19.63;14.38;;;;;;;16.85;95.24;98729.63;4136975;28;20084;-69
2022/07/23 06:45:32;;;;;;;16.70;14.10;;;;;;;16.93;95.07;98732.34;4137214;28;20129;-69
2022/07/23 06:47:33;;;;;;;17.00;14.27;;;;;;;17.01;95.86;98731.06;4137975;28;20046;-69
2022/07/23 06:49:33;;;;;;;16.02;13.15;;;;;;;17.09;93.62;98725.00;4136136;28;20061;-69
2022/07/23 06:51:34;;;;;;;18.08;13.20;;;;;;;17.25;93.69;98737.63;4136387;28;20034;-69
2022/07/23 06:53:34;;;;;;;18.13;13.38;;;;;;;17.38;94.17;98733.06;4135218;28;20367;-69
2022/07/23 06:55:38;;;;;;;16.70;13.73;;;;;;;17.44;94.73;98725.78;4135679;28;20065;-69
2022/07/23 06:57:38;;;;;;;17.45;13.80;;;;;;;17.52;92.68;98718.91;4134553;28;20165;-69
2022/07/23 06:59:40;;;;;;;17.08;14.02;;;;;;;17.59;93.83;98720.81;4136525;28;20065;-69
2022/07/23 07:01:40;;;;;;;17.60;14.03;;;;;;;17.70;96.07;98715.91;4134422;28;20050;-69
2022/07/23 07:03:41;;;;;;;16.13;13.43;;;;;;;17.84;94.07;98718.50;4134749;28;20384;-69
2022/07/23 07:05:41;;;;;;;20.15;13.63;;;;;;;17.98;91.36;98728.72;4130626;28;20498;-69
2022/07/23 07:07:41;;;;;;;15.43;13.63;;;;;;;18.09;92.66;98734.16;4135345;28;20665;-69
2022/07/23 07:09:42;;;;;;;16.10;13.60;;;;;;;18.10;92.32;98728.13;4133832;28;20088;-69
2022/07/23 07:11:42;;;;;;;16.35;13.80;;;;;;;18.13;91.03;98716.09;4134482;28;20103;-69
2022/07/23 07:13:43;;;;;;;14.75;11.93;;;;;;;18.09;89.06;98725.75;4136627;28;20065;-69
2022/07/23 07:15:43;;;;;;;14.73;12.30;;;;;;;18.12;89.77;98725.72;4134253;28;20057;-69
2022/07/23 07:17:44;;;;;;;15.98;13.05;;;;;;;18.11;90.75;98734.53;4135211;28;20573;-69
2022/07/23 07:19:44;;;;;;;15.70;12.82;;;;;;;18.21;88.62;98736.41;4132739;28;20073;-69
2022/07/23 07:21:44;;;;;;;14.45;12.82;;;;;;;18.25;88.98;98734.31;4136410;28;20050;-69
2022/07/23 07:23:45;;;;;;;15.38;11.95;;;;;;;18.28;89.12;98732.66;4136235;28;20057;-69
2022/07/23 07:25:45;;;;;;;13.85;12.13;;;;;;;18.35;88.11;98729.75;4134659;28;20496;-69
2022/07/23 07:27:45;;;;;;;16.30;12.00;;;;;;;18.38;87.19;98738.13;4134421;28;20078;-69
2022/07/23 07:29:46;;;;;;;13.55;10.43;;;;;;;18.44;87.14;98733.59;4133514;28;20042;-70
2022/07/23 07:31:46;;;;;;;13.60;12.15;;;;;;;18.54;87.05;98737.47;4135720;28;20310;-69
2022/07/23 07:33:46;;;;;;;16.63;12.80;;;;;;;18.58;85.83;98724.19;4136572;28;20517;-69
2022/07/23 07:35:47;;;;;;;13.50;11.85;;;;;;;18.67;85.36;98724.47;4135435;28;20034;-69
2022/07/23 07:37:47;;;;;;;14.65;13.13;;;;;;;18.76;87.38;98715.50;4080437;28;20050;-69
2022/07/23 07:39:47;;;;;;;15.30;13.55;;;;;;;18.84;86.83;98719.75;4132822;28;20053;-69
2022/07/23 07:41:48;;;;;;;16.00;13.10;;;;;;;18.96;85.40;98732.38;4137104;28;20434;-69
2022/07/23 07:43:48;;;;;;;15.48;13.43;;;;;;;18.97;84.33;98739.56;4135763;28;20085;-69
2022/07/23 07:45:48;;;;;;;15.05;12.63;;;;;;;18.93;84.96;98742.41;4135788;28;20798;-69
2022/07/23 07:47:50;;;;;;;14.45;12.65;;;;;;;18.93;84.47;98745.22;4136830;28;20456;-69
2022/07/23 07:49:50;;;;;;;14.63;13.07;;;;;;;18.91;84.32;98752.47;4134916;28;20053;-69
2022/07/23 07:51:51;;;;;;;15.07;13.13;;;;;;;18.87;83.96;98772.19;4126831;28;20085;-69
2022/07/23 07:53:51;;;;;;;17.98;13.40;;;;;;;18.75;83.18;98781.19;4135420;28;20073;-69
2022/07/23 07:55:51;;;;;;;14.18;12.60;;;;;;;18.64;83.49;98769.34;4135072;28;20367;-70
2022/07/23 07:57:52;;;;;;;13.20;11.80;;;;;;;18.51;83.46;98760.72;4134310;28;20049;-69
2022/07/23 07:59:52;;;;;;;13.80;11.85;;;;;;;18.57;84.26;98777.84;4134768;28;20054;-69
2022/07/23 08:01:53;;;;;;;11.48;10.27;;;;;;;18.52;83.74;98779.91;4136405;28;20045;-69
2022/07/23 08:03:53;;;;;;;18.08;14.00;;;;;;;18.48;84.39;98784.78;4135713;28;20046;-69
2022/07/23 08:05:53;;;;;;;13.57;12.07;;;;;;;18.41;85.02;98789.69;4135273;28;20049;-69
2022/07/23 08:07:55;;;;;;;14.43;12.93;;;;;;;18.36;84.90;98796.56;4135799;28;20089;-69
2022/07/23 08:09:56;;;;;;;14.20;12.70;;;;;;;18.10;85.17;98800.13;4135130;28;20314;-69
2022/07/23 08:11:56;;;;;;;15.82;13.20;;;;;;;18.14;84.79;98801.69;4136775;28;20576;-69
2022/07/23 08:13:56;;;;;;;16.33;12.40;;;;;;;18.12;85.60;98803.31;4136189;28;20071;-69
2022/07/23 08:15:57;;;;;;;14.65;13.15;;;;;;;18.16;86.52;98804.06;4134043;28;20049;-69
2022/07/23 08:17:58;;;;;;;14.73;12.23;;;;;;;18.22;85.70;98791.19;4136269;28;20041;-69
2022/07/23 08:19:58;;;;;;;13.35;11.93;;;;;;;18.36;85.32;98793.75;4135892;28;20048;-69
2022/07/23 08:21:58;;;;;;;15.52;12.10;;;;;;;18.53;84.61;98797.50;4135545;28;20132;-70
2022/07/23 08:23:59;;;;;;;15.27;12.25;;;;;;;18.56;82.94;98804.28;4136491;28;20042;-69
2022/07/23 08:26:00;;;;;;;13.05;11.68;;;;;;;18.64;83.46;98805.75;4134830;28;20042;-69
2022/07/23 08:28:03;;;;;;;16.03;13.37;;;;;;;18.68;83.04;98792.50;4136018;28;20548;-71
2022/07/23 08:30:04;;;;;;;12.50;11.00;;;;;;;18.87;80.38;98791.81;4136265;28;20090;-69
2022/07/23 08:32:05;;;;;;;16.23;11.45;;;;;;;19.11;80.41;98788.97;4134772;28;20100;-70
2022/07/23 08:34:05;;;;;;;18.00;12.45;;;;;;;19.26;81.09;98791.09;4134654;28;20038;-70
2022/07/23 08:36:06;;;;;;;18.13;14.30;;;;;;;19.14;79.43;98790.94;4136262;28;20233;-70
2022/07/23 08:38:09;;;;;;;12.88;11.02;;;;;;;19.17;80.47;98787.25;4134243;28;20093;-70
2022/07/23 08:40:10;;;;;;;12.27;10.75;;;;;;;19.23;79.45;98782.75;4134622;28;20076;-69
2022/07/23 08:42:13;;;;;;;15.15;13.57;;;;;;;19.25;81.00;98775.47;4135316;28;20526;-69
2022/07/23 08:44:16;;;;;;;14.50;11.95;;;;;;;19.29;79.51;98778.25;4136000;28;20302;-70
2022/07/23 08:46:18;;;;;;;15.88;13.45;;;;;;;19.41;80.80;98786.00;4135749;28;20038;-70
2022/07/23 08:48:21;;;;;;;15.55;13.20;;;;;;;19.41;79.17;98777.59;4134587;28;20095;-70
2022/07/23 08:50:24;;;;;;;16.13;13.55;;;;;;;19.48;79.52;98790.69;4135177;28;20293;-70
2022/07/23 08:52:24;;;;;;;15.80;13.75;;;;;;;19.54;80.76;98784.16;4135260;28;20049;-70
2022/07/23 08:54:26;;;;;;;17.13;13.40;;;;;;;19.60;78.36;98790.06;4135749;28;20045;-70
2022/07/23 08:56:26;;;;;;;16.13;13.57;;;;;;;19.72;78.10;98795.06;4135849;28;20292;-70
2022/07/23 08:58:27;;;;;;;14.13;12.63;;;;;;;19.86;77.93;98794.00;4134683;28;20277;-69
2022/07/23 09:00:28;;;;;;;15.13;13.57;;;;;;;19.96;78.82;98801.38;4132665;28;20054;-70
2022/07/23 09:02:28;;;;;;;15.00;12.93;;;;;;;19.89;77.80;98807.16;4134474;28;20133;-69
2022/07/23 09:04:31;;;;;;;20.60;17.70;;;;;;;19.49;79.50;98814.72;4134980;28;20065;-70
2022/07/23 09:06:31;;;;;;;17.73;13.98;;;;;;;19.21;79.40;98824.47;4135785;28;20069;-70
2022/07/23 09:08:39;;;;;;;15.63;13.85;;;;;;;19.14;79.92;98830.19;4134622;28;20394;-69
2022/07/23 09:10:54;;;;;;;19.65;15.27;;;;;;;19.03;80.65;98817.16;4134727;28;20461;-69
2022/07/23 09:12:54;;;;;;;16.40;14.52;;;;;;;19.06;79.97;98821.91;4135407;28;20068;-70
2022/07/23 09:14:54;;;;;;;17.60;14.55;;;;;;;18.93;79.83;98829.34;4135029;28;20045;-69
2022/07/23 09:16:55;;;;;;;15.20;13.55;;;;;;;19.09;79.16;98832.25;4133690;28;20070;-69